North Lawrence, Ohio
Current Conditions -  °F | °C
As of 10:51 AM on Friday 24 Oct 2014 (Local Time) from KCAK Reporting Station
Broken Clouds Broken Clouds  
Wind Chill: 53°   Ceiling: 25000
Heat Index: 53°   Visibility: 10mi
Dew Point: 42°   Wind: 6mph
Humidity: 66%   Direction: 260°W
Pressure: 30.1"   Gusts: NA
Location:  40.84°N, 81.63°W
Report Text: KCAK 241451Z 26005KT 10SM BKN250 12/06 A3010 RMK AO2 SLP198 T01170056 52000 $
Loading
Personal Weather Stations






























Interactive Weather Map
Tropical Storm Tracking
New forecast layout! Learn more

10-Day Weather Forecast

Advertisements
Track Severe Weather on mobile